Погода Исуатанна 2 недели

Чьяпас, Мексика

25 февраля-08 марта
  • 25февраля
    Сегодня
    +13°
    +23°
    Ясно и безоблачно
    ВремяПогодаТемператураВлажностьДавлениеВетер, м/сВероятность осадков
    00:00Пасмурно, сплошная облачность+16°C99 %700 мм1.5 м/с11 %
    03:00Небольшая облачность+14°C97 %699 мм1.2 м/с7 %
    06:00Пасмурно, небольшой дождь+14°C98 %699 мм1.1 м/с14 %
    09:00Практически безоблачно+15°C87 %700 мм1.4 м/с7 %
    12:00Ясно и безоблачно+21°C63 %700 мм2.5 м/с4 %
    15:00Ясно и безоблачно+23°C67 %699 мм3.2 м/с2 %
    18:00Небольшая облачность+19°C89 %699 мм2.1 м/с1 %
    21:00Небольшая облачность+17°C94 %699 мм1.4 м/с2 %
  • 26февраля
    Понедельник
    +12°
    +24°
    Практически безоблачно
    ВремяПогодаТемператураВлажностьДавлениеВетер, м/сВероятность осадков
    00:00Ясно и безоблачно+16°C85 %699 мм1.1 м/с2 %
    03:00Ясно и безоблачно+15°C83 %697 мм0.7 м/с2 %
    06:00Ясно и безоблачно+14°C81 %697 мм0.5 м/с2 %
    09:00Ясно и безоблачно+18°C70 %699 мм0.8 м/с2 %
    12:00Ясно и безоблачно+23°C63 %699 мм2.0 м/с2 %
    15:00Практически безоблачно+24°C75 %698 мм2.7 м/с2 %
    18:00Ясно и безоблачно+20°C92 %697 мм1.6 м/с4 %
    21:00Облачно с прояснениями+18°C98 %697 мм1.7 м/с2 %
  • 27февраля
    Вторник
    +14°
    +26°
    Ясно и безоблачно
    ВремяПогодаТемператураВлажностьДавлениеВетер, м/сВероятность осадков
    00:00Ясно и безоблачно+16°C88 %696 мм1.5 м/с2 %
    03:00Ясно и безоблачно+14°C79 %694 мм0.6 м/с2 %
    06:00Ясно и безоблачно+13°C68 %694 мм0.9 м/с2 %
    09:00Ясно и безоблачно+20°C63 %697 мм0.3 м/с2 %
    12:00Ясно и безоблачно+25°C53 %697 мм1.4 м/с2 %
    15:00Ясно и безоблачно+26°C62 %695 мм1.8 м/с19 %
    18:00Практически безоблачно+23°C89 %695 мм0.8 м/с16 %
    21:00Практически безоблачно+19°C90 %695 мм1.1 м/с2 %
  • 28февраля
    Среда
    +16°
    +28°
    Ясно и безоблачно
    ВремяПогодаТемператураВлажностьДавлениеВетер, м/сВероятность осадков
    00:00Ясно и безоблачно+19°C81 %695 мм1.4 м/с2 %
    03:00Ясно и безоблачно+18°C83 %694 мм1.6 м/с2 %
    06:00Ясно и безоблачно+16°C76 %694 мм1.8 м/с2 %
    09:00Ясно и безоблачно+23°C60 %697 мм0.9 м/с2 %
    12:00Ясно и безоблачно+27°C46 %697 мм1.1 м/с2 %
    15:00Ясно и безоблачно+28°C59 %696 мм2.0 м/с23 %
    18:00Ясно и безоблачно+25°C84 %696 мм0.7 м/с7 %
    21:00Ясно и безоблачно+21°C82 %697 мм0.9 м/с2 %
Мы используем cookies
Соглашаюсь